Terryville, New York
Current Conditions -  °F | °C
As of 10:56 AM on Tuesday 21 Oct 2014 (Local Time) from KISP Reporting Station
Broken Clouds Broken Clouds  
Wind Chill: 18°   Ceiling: 25000
Heat Index: 18°   Visibility: 10mi
Dew Point: 11°   Wind: 12mph
Humidity: 63%   Direction: 100°E
Pressure: 29.89"   Gusts: NA
Location:  40.91°N, 73.07°W
Report Text: KISP 211456Z 10010KT 10SM FEW120 SCT150 BKN250 18/11 A2989 RMK AO2 SLP121 T01780106 58005
Loading
Personal Weather Stations






























Interactive Weather Map
Tropical Storm Tracking
New forecast layout! Learn more

10-Day Weather Forecast

Advertisements
Track Severe Weather on mobile